sensor_id;sensor_type;location;lat;lon;timestamp;temperature;humidity
9820;DHT22;4949;48.482;9.206;2023-07-31T00:00:23;16.80;75.20
9820;DHT22;4949;48.482;9.206;2023-07-31T00:05:24;16.70;75.00
9820;DHT22;4949;48.482;9.206;2023-07-31T00:10:25;16.60;75.10
9820;DHT22;4949;48.482;9.206;2023-07-31T00:15:28;16.60;75.10
9820;DHT22;4949;48.482;9.206;2023-07-31T00:20:31;16.60;75.70
9820;DHT22;4949;48.482;9.206;2023-07-31T00:25:35;16.40;76.20
9820;DHT22;4949;48.482;9.206;2023-07-31T00:30:35;16.40;76.40
9820;DHT22;4949;48.482;9.206;2023-07-31T00:35:36;16.40;76.50
9820;DHT22;4949;48.482;9.206;2023-07-31T00:40:37;16.40;76.40
9820;DHT22;4949;48.482;9.206;2023-07-31T00:45:38;16.40;75.40
9820;DHT22;4949;48.482;9.206;2023-07-31T00:50:39;16.40;75.80
9820;DHT22;4949;48.482;9.206;2023-07-31T00:55:40;16.40;76.70
9820;DHT22;4949;48.482;9.206;2023-07-31T01:00:44;16.30;77.00
9820;DHT22;4949;48.482;9.206;2023-07-31T01:11:30;16.20;76.50
9820;DHT22;4949;48.482;9.206;2023-07-31T01:16:32;16.20;76.70
9820;DHT22;4949;48.482;9.206;2023-07-31T01:26:39;16.10;77.60
9820;DHT22;4949;48.482;9.206;2023-07-31T01:31:48;16.00;77.90
9820;DHT22;4949;48.482;9.206;2023-07-31T01:36:53;16.00;78.20
9820;DHT22;4949;48.482;9.206;2023-07-31T01:41:53;15.90;78.50
9820;DHT22;4949;48.482;9.206;2023-07-31T01:46:54;15.90;79.60
9820;DHT22;4949;48.482;9.206;2023-07-31T01:51:55;15.80;80.40
9820;DHT22;4949;48.482;9.206;2023-07-31T01:56:58;15.70;81.70
9820;DHT22;4949;48.482;9.206;2023-07-31T02:01:58;15.60;81.80
9820;DHT22;4949;48.482;9.206;2023-07-31T02:06:59;15.50;82.50
9820;DHT22;4949;48.482;9.206;2023-07-31T02:12:02;15.40;83.00
9820;DHT22;4949;48.482;9.206;2023-07-31T02:17:03;15.30;83.20
9820;DHT22;4949;48.482;9.206;2023-07-31T02:22:09;15.30;83.60
9820;DHT22;4949;48.482;9.206;2023-07-31T02:27:11;15.20;83.90
9820;DHT22;4949;48.482;9.206;2023-07-31T02:32:16;15.20;84.40
9820;DHT22;4949;48.482;9.206;2023-07-31T02:37:20;15.20;83.70
9820;DHT22;4949;48.482;9.206;2023-07-31T02:42:25;15.20;83.00
9820;DHT22;4949;48.482;9.206;2023-07-31T02:47:26;15.30;80.40
9820;DHT22;4949;48.482;9.206;2023-07-31T02:52:26;15.40;78.70
9820;DHT22;4949;48.482;9.206;2023-07-31T02:57:29;15.50;78.80
9820;DHT22;4949;48.482;9.206;2023-07-31T03:02:30;15.50;78.00
9820;DHT22;4949;48.482;9.206;2023-07-31T03:07:31;15.60;77.60
9820;DHT22;4949;48.482;9.206;2023-07-31T03:12:34;15.70;76.60
9820;DHT22;4949;48.482;9.206;2023-07-31T03:17:37;15.70;76.60
9820;DHT22;4949;48.482;9.206;2023-07-31T03:22:38;15.70;77.10
9820;DHT22;4949;48.482;9.206;2023-07-31T03:27:38;15.60;79.00
9820;DHT22;4949;48.482;9.206;2023-07-31T03:32:41;15.50;80.10
9820;DHT22;4949;48.482;9.206;2023-07-31T03:37:42;15.40;81.50
9820;DHT22;4949;48.482;9.206;2023-07-31T03:42:43;15.30;82.30
9820;DHT22;4949;48.482;9.206;2023-07-31T03:47:44;15.20;83.50
9820;DHT22;4949;48.482;9.206;2023-07-31T03:52:47;15.10;83.80
9820;DHT22;4949;48.482;9.206;2023-07-31T03:57:53;15.00;84.40
9820;DHT22;4949;48.482;9.206;2023-07-31T04:02:56;14.90;84.60
9820;DHT22;4949;48.482;9.206;2023-07-31T04:07:57;14.90;84.20
9820;DHT22;4949;48.482;9.206;2023-07-31T04:12:57;14.90;84.60
9820;DHT22;4949;48.482;9.206;2023-07-31T04:17:58;14.80;85.00
9820;DHT22;4949;48.482;9.206;2023-07-31T04:22:59;14.80;85.30
9820;DHT22;4949;48.482;9.206;2023-07-31T04:28:00;14.80;85.40
9820;DHT22;4949;48.482;9.206;2023-07-31T04:33:01;14.80;85.30
9820;DHT22;4949;48.482;9.206;2023-07-31T04:38:04;14.90;85.50
9820;DHT22;4949;48.482;9.206;2023-07-31T04:43:04;14.90;85.90
9820;DHT22;4949;48.482;9.206;2023-07-31T04:48:05;14.90;85.80
9820;DHT22;4949;48.482;9.206;2023-07-31T04:53:08;14.90;85.90
9820;DHT22;4949;48.482;9.206;2023-07-31T04:58:11;15.00;86.20
9820;DHT22;4949;48.482;9.206;2023-07-31T05:03:17;15.00;86.70
9820;DHT22;4949;48.482;9.206;2023-07-31T05:08:17;15.00;86.10
9820;DHT22;4949;48.482;9.206;2023-07-31T05:13:23;15.10;87.00
9820;DHT22;4949;48.482;9.206;2023-07-31T05:18:24;15.10;87.10
9820;DHT22;4949;48.482;9.206;2023-07-31T05:23:29;15.20;87.20
9820;DHT22;4949;48.482;9.206;2023-07-31T05:28:34;15.20;86.70
9820;DHT22;4949;48.482;9.206;2023-07-31T05:33:38;15.20;86.60
9820;DHT22;4949;48.482;9.206;2023-07-31T05:38:39;15.30;86.20
9820;DHT22;4949;48.482;9.206;2023-07-31T05:43:40;15.40;87.20
9820;DHT22;4949;48.482;9.206;2023-07-31T05:48:41;15.40;86.90
9820;DHT22;4949;48.482;9.206;2023-07-31T05:53:41;15.50;86.40
9820;DHT22;4949;48.482;9.206;2023-07-31T05:58:47;15.60;85.30
9820;DHT22;4949;48.482;9.206;2023-07-31T06:03:51;15.70;84.90
9820;DHT22;4949;48.482;9.206;2023-07-31T06:08:56;15.70;83.70
9820;DHT22;4949;48.482;9.206;2023-07-31T06:13:59;15.80;83.20
9820;DHT22;4949;48.482;9.206;2023-07-31T06:19:02;15.90;82.50
9820;DHT22;4949;48.482;9.206;2023-07-31T06:24:04;16.00;83.60
9820;DHT22;4949;48.482;9.206;2023-07-31T06:29:08;16.10;83.80
9820;DHT22;4949;48.482;9.206;2023-07-31T06:34:09;16.20;83.80
9820;DHT22;4949;48.482;9.206;2023-07-31T06:39:09;16.30;84.00
9820;DHT22;4949;48.482;9.206;2023-07-31T06:44:10;16.40;84.30
9820;DHT22;4949;48.482;9.206;2023-07-31T06:49:16;16.60;84.50
9820;DHT22;4949;48.482;9.206;2023-07-31T06:54:19;16.80;83.50
9820;DHT22;4949;48.482;9.206;2023-07-31T06:59:20;17.00;83.10
9820;DHT22;4949;48.482;9.206;2023-07-31T07:04:21;17.20;81.70
9820;DHT22;4949;48.482;9.206;2023-07-31T07:09:24;17.30;78.50
9820;DHT22;4949;48.482;9.206;2023-07-31T07:14:25;17.50;78.20
9820;DHT22;4949;48.482;9.206;2023-07-31T07:19:25;17.60;74.90
9820;DHT22;4949;48.482;9.206;2023-07-31T07:24:28;17.70;74.10
9820;DHT22;4949;48.482;9.206;2023-07-31T07:29:34;17.80;75.00
9820;DHT22;4949;48.482;9.206;2023-07-31T07:34:40;18.00;75.10
9820;DHT22;4949;48.482;9.206;2023-07-31T07:39:43;18.10;75.20
9820;DHT22;4949;48.482;9.206;2023-07-31T07:44:44;18.30;73.10
9820;DHT22;4949;48.482;9.206;2023-07-31T07:49:45;18.50;73.10
9820;DHT22;4949;48.482;9.206;2023-07-31T07:54:48;18.60;72.10
9820;DHT22;4949;48.482;9.206;2023-07-31T07:59:49;18.70;69.10
9820;DHT22;4949;48.482;9.206;2023-07-31T08:04:50;18.90;67.70
9820;DHT22;4949;48.482;9.206;2023-07-31T08:09:51;19.10;68.60
9820;DHT22;4949;48.482;9.206;2023-07-31T08:14:56;19.20;67.00
9820;DHT22;4949;48.482;9.206;2023-07-31T08:19:57;19.30;65.10
9820;DHT22;4949;48.482;9.206;2023-07-31T08:25:03;19.40;64.60
9820;DHT22;4949;48.482;9.206;2023-07-31T08:30:04;19.40;63.50
9820;DHT22;4949;48.482;9.206;2023-07-31T08:35:06;19.60;63.80
9820;DHT22;4949;48.482;9.206;2023-07-31T08:40:07;19.80;61.90
9820;DHT22;4949;48.482;9.206;2023-07-31T08:45:15;19.80;62.20
9820;DHT22;4949;48.482;9.206;2023-07-31T08:50:19;19.80;60.50
9820;DHT22;4949;48.482;9.206;2023-07-31T08:55:20;20.00;61.60
9820;DHT22;4949;48.482;9.206;2023-07-31T09:00:25;20.10;59.50
9820;DHT22;4949;48.482;9.206;2023-07-31T09:05:26;20.00;60.00
9820;DHT22;4949;48.482;9.206;2023-07-31T09:10:29;20.10;60.40
9820;DHT22;4949;48.482;9.206;2023-07-31T09:15:35;20.20;60.30
9820;DHT22;4949;48.482;9.206;2023-07-31T09:20:37;20.40;59.80
9820;DHT22;4949;48.482;9.206;2023-07-31T09:25:40;20.40;59.50
9820;DHT22;4949;48.482;9.206;2023-07-31T09:30:51;20.50;60.30
9820;DHT22;4949;48.482;9.206;2023-07-31T09:35:58;20.50;59.00
9820;DHT22;4949;48.482;9.206;2023-07-31T09:41:00;20.60;59.70
9820;DHT22;4949;48.482;9.206;2023-07-31T09:46:03;20.80;59.80
9820;DHT22;4949;48.482;9.206;2023-07-31T09:51:04;20.90;58.30
9820;DHT22;4949;48.482;9.206;2023-07-31T09:56:05;20.90;58.80
9820;DHT22;4949;48.482;9.206;2023-07-31T10:01:08;21.00;58.80
9820;DHT22;4949;48.482;9.206;2023-07-31T10:06:10;21.00;58.80
9820;DHT22;4949;48.482;9.206;2023-07-31T10:11:13;21.20;58.20
9820;DHT22;4949;48.482;9.206;2023-07-31T10:16:14;21.30;58.40
9820;DHT22;4949;48.482;9.206;2023-07-31T10:21:17;21.50;57.40
9820;DHT22;4949;48.482;9.206;2023-07-31T10:26:19;21.60;57.70
9820;DHT22;4949;48.482;9.206;2023-07-31T10:31:24;21.60;57.70
9820;DHT22;4949;48.482;9.206;2023-07-31T10:36:25;21.60;58.90
9820;DHT22;4949;48.482;9.206;2023-07-31T10:41:32;21.80;57.70
9820;DHT22;4949;48.482;9.206;2023-07-31T10:46:33;22.20;56.40
9820;DHT22;4949;48.482;9.206;2023-07-31T10:51:35;22.30;55.70
9820;DHT22;4949;48.482;9.206;2023-07-31T10:56:46;22.50;56.50
9820;DHT22;4949;48.482;9.206;2023-07-31T11:01:55;22.60;55.60
9820;DHT22;4949;48.482;9.206;2023-07-31T11:07:03;22.50;56.90
9820;DHT22;4949;48.482;9.206;2023-07-31T11:12:09;22.70;55.20
9820;DHT22;4949;48.482;9.206;2023-07-31T11:17:13;22.90;54.00
9820;DHT22;4949;48.482;9.206;2023-07-31T11:22:17;23.10;53.20
9820;DHT22;4949;48.482;9.206;2023-07-31T11:27:18;23.30;52.70
9820;DHT22;4949;48.482;9.206;2023-07-31T11:32:19;23.40;52.40
9820;DHT22;4949;48.482;9.206;2023-07-31T11:37:22;23.50;52.40
9820;DHT22;4949;48.482;9.206;2023-07-31T11:42:26;23.60;52.70
9820;DHT22;4949;48.482;9.206;2023-07-31T11:47:32;24.00;52.00
9820;DHT22;4949;48.482;9.206;2023-07-31T11:52:39;24.00;51.30
9820;DHT22;4949;48.482;9.206;2023-07-31T11:57:45;24.00;52.10
9820;DHT22;4949;48.482;9.206;2023-07-31T12:02:50;24.00;51.70
9820;DHT22;4949;48.482;9.206;2023-07-31T12:07:53;24.10;52.10
9820;DHT22;4949;48.482;9.206;2023-07-31T12:13:06;24.10;52.40
9820;DHT22;4949;48.482;9.206;2023-07-31T12:18:10;24.00;52.50
9820;DHT22;4949;48.482;9.206;2023-07-31T12:23:19;23.90;52.60
9820;DHT22;4949;48.482;9.206;2023-07-31T12:28:28;23.90;53.10
9820;DHT22;4949;48.482;9.206;2023-07-31T12:33:34;23.80;54.50
9820;DHT22;4949;48.482;9.206;2023-07-31T12:38:38;23.60;54.70
9820;DHT22;4949;48.482;9.206;2023-07-31T12:43:43;23.60;54.70
9820;DHT22;4949;48.482;9.206;2023-07-31T12:48:44;23.70;54.20
9820;DHT22;4949;48.482;9.206;2023-07-31T12:53:47;23.90;53.90
9820;DHT22;4949;48.482;9.206;2023-07-31T12:58:50;24.10;54.20
9820;DHT22;4949;48.482;9.206;2023-07-31T13:03:51;24.50;53.00
9820;DHT22;4949;48.482;9.206;2023-07-31T13:08:52;24.60;51.80
9820;DHT22;4949;48.482;9.206;2023-07-31T13:13:55;24.80;50.50
9820;DHT22;4949;48.482;9.206;2023-07-31T13:18:58;25.00;51.30
9820;DHT22;4949;48.482;9.206;2023-07-31T13:23:59;25.20;50.40
9820;DHT22;4949;48.482;9.206;2023-07-31T13:29:02;25.70;51.20
9820;DHT22;4949;48.482;9.206;2023-07-31T13:34:07;26.10;49.80
9820;DHT22;4949;48.482;9.206;2023-07-31T13:39:10;26.10;49.10
9820;DHT22;4949;48.482;9.206;2023-07-31T13:44:11;26.20;48.40
9820;DHT22;4949;48.482;9.206;2023-07-31T13:49:12;26.10;48.80
9820;DHT22;4949;48.482;9.206;2023-07-31T13:54:13;26.00;48.50
9820;DHT22;4949;48.482;9.206;2023-07-31T13:59:16;25.60;48.60
9820;DHT22;4949;48.482;9.206;2023-07-31T14:04:19;25.00;49.80
9820;DHT22;4949;48.482;9.206;2023-07-31T14:09:19;24.60;50.70
9820;DHT22;4949;48.482;9.206;2023-07-31T14:14:20;24.50;50.40
9820;DHT22;4949;48.482;9.206;2023-07-31T14:19:24;24.40;51.10
9820;DHT22;4949;48.482;9.206;2023-07-31T14:24:25;24.20;51.50
9820;DHT22;4949;48.482;9.206;2023-07-31T14:29:29;24.30;51.50
9820;DHT22;4949;48.482;9.206;2023-07-31T14:34:30;24.20;51.10
9820;DHT22;4949;48.482;9.206;2023-07-31T14:39:33;23.90;52.10
9820;DHT22;4949;48.482;9.206;2023-07-31T14:44:36;23.90;52.30
9820;DHT22;4949;48.482;9.206;2023-07-31T14:49:42;24.10;52.20
9820;DHT22;4949;48.482;9.206;2023-07-31T14:54:45;24.20;51.80
9820;DHT22;4949;48.482;9.206;2023-07-31T14:59:46;24.00;52.50
9820;DHT22;4949;48.482;9.206;2023-07-31T15:04:50;23.90;53.00
9820;DHT22;4949;48.482;9.206;2023-07-31T15:09:54;23.70;53.00
9820;DHT22;4949;48.482;9.206;2023-07-31T15:14:54;23.60;53.30
9820;DHT22;4949;48.482;9.206;2023-07-31T15:19:57;23.50;53.80
9820;DHT22;4949;48.482;9.206;2023-07-31T15:24:58;23.60;53.70
9820;DHT22;4949;48.482;9.206;2023-07-31T15:29:59;23.60;54.10
9820;DHT22;4949;48.482;9.206;2023-07-31T15:34:59;23.70;53.70
9820;DHT22;4949;48.482;9.206;2023-07-31T15:40:00;23.70;53.10
9820;DHT22;4949;48.482;9.206;2023-07-31T15:45:06;23.60;53.50
9820;DHT22;4949;48.482;9.206;2023-07-31T15:50:10;23.70;53.30
9820;DHT22;4949;48.482;9.206;2023-07-31T15:55:14;23.90;52.90
9820;DHT22;4949;48.482;9.206;2023-07-31T16:00:18;23.80;53.50
9820;DHT22;4949;48.482;9.206;2023-07-31T16:05:19;23.80;54.10
9820;DHT22;4949;48.482;9.206;2023-07-31T16:10:20;23.80;54.80
9820;DHT22;4949;48.482;9.206;2023-07-31T16:15:23;23.90;54.70
9820;DHT22;4949;48.482;9.206;2023-07-31T16:20:26;23.90;54.70
9820;DHT22;4949;48.482;9.206;2023-07-31T16:25:29;24.00;54.40
9820;DHT22;4949;48.482;9.206;2023-07-31T16:30:30;24.00;55.20
9820;DHT22;4949;48.482;9.206;2023-07-31T16:35:33;24.00;54.80
9820;DHT22;4949;48.482;9.206;2023-07-31T16:40:36;24.10;54.40
9820;DHT22;4949;48.482;9.206;2023-07-31T16:45:39;24.20;54.30
9820;DHT22;4949;48.482;9.206;2023-07-31T16:50:40;24.40;54.30
9820;DHT22;4949;48.482;9.206;2023-07-31T16:55:41;24.20;54.80
9820;DHT22;4949;48.482;9.206;2023-07-31T17:00:44;24.00;54.80
9820;DHT22;4949;48.482;9.206;2023-07-31T17:05:45;24.10;55.30
9820;DHT22;4949;48.482;9.206;2023-07-31T17:10:50;23.90;55.90
9820;DHT22;4949;48.482;9.206;2023-07-31T17:15:51;24.00;56.00
9820;DHT22;4949;48.482;9.206;2023-07-31T17:20:57;24.00;56.50
9820;DHT22;4949;48.482;9.206;2023-07-31T17:25:57;23.90;56.00
9820;DHT22;4949;48.482;9.206;2023-07-31T17:31:01;23.90;56.20
9820;DHT22;4949;48.482;9.206;2023-07-31T17:36:04;24.00;56.20
9820;DHT22;4949;48.482;9.206;2023-07-31T17:41:05;24.10;55.70
9820;DHT22;4949;48.482;9.206;2023-07-31T17:46:08;24.10;55.70
9820;DHT22;4949;48.482;9.206;2023-07-31T17:51:09;24.00;56.10
9820;DHT22;4949;48.482;9.206;2023-07-31T17:56:13;23.90;56.20
9820;DHT22;4949;48.482;9.206;2023-07-31T18:01:16;23.90;56.30
9820;DHT22;4949;48.482;9.206;2023-07-31T18:06:21;23.90;56.60
9820;DHT22;4949;48.482;9.206;2023-07-31T18:11:22;24.00;56.50
9820;DHT22;4949;48.482;9.206;2023-07-31T18:16:26;24.00;56.40
9820;DHT22;4949;48.482;9.206;2023-07-31T18:21:28;23.80;57.10
9820;DHT22;4949;48.482;9.206;2023-07-31T18:26:32;23.70;57.90
9820;DHT22;4949;48.482;9.206;2023-07-31T18:31:33;23.60;58.50
9820;DHT22;4949;48.482;9.206;2023-07-31T18:36:36;23.60;60.70
9820;DHT22;4949;48.482;9.206;2023-07-31T18:41:39;23.50;63.00
9820;DHT22;4949;48.482;9.206;2023-07-31T18:46:42;23.40;65.00
9820;DHT22;4949;48.482;9.206;2023-07-31T18:51:43;23.20;66.80
9820;DHT22;4949;48.482;9.206;2023-07-31T18:56:49;23.10;70.50
9820;DHT22;4949;48.482;9.206;2023-07-31T19:01:49;22.90;73.00
9820;DHT22;4949;48.482;9.206;2023-07-31T19:06:53;22.80;75.90
9820;DHT22;4949;48.482;9.206;2023-07-31T19:11:56;22.70;69.10
9820;DHT22;4949;48.482;9.206;2023-07-31T19:16:59;22.60;72.00
9820;DHT22;4949;48.482;9.206;2023-07-31T19:22:00;22.50;74.50
9820;DHT22;4949;48.482;9.206;2023-07-31T19:27:02;22.50;72.80
9820;DHT22;4949;48.482;9.206;2023-07-31T19:32:03;22.50;71.50
9820;DHT22;4949;48.482;9.206;2023-07-31T19:37:04;22.40;73.80
9820;DHT22;4949;48.482;9.206;2023-07-31T19:42:05;22.20;73.20
9820;DHT22;4949;48.482;9.206;2023-07-31T19:47:06;22.00;72.10
9820;DHT22;4949;48.482;9.206;2023-07-31T19:52:09;21.90;73.30
9820;DHT22;4949;48.482;9.206;2023-07-31T19:57:10;21.80;76.40
9820;DHT22;4949;48.482;9.206;2023-07-31T20:02:10;21.70;78.60
9820;DHT22;4949;48.482;9.206;2023-07-31T20:07:11;21.50;80.20
9820;DHT22;4949;48.482;9.206;2023-07-31T20:12:12;21.40;81.60
9820;DHT22;4949;48.482;9.206;2023-07-31T20:17:13;21.20;80.60
9820;DHT22;4949;48.482;9.206;2023-07-31T20:22:18;21.00;83.30
9820;DHT22;4949;48.482;9.206;2023-07-31T20:27:22;20.90;85.70
9820;DHT22;4949;48.482;9.206;2023-07-31T20:32:22;20.80;83.90
9820;DHT22;4949;48.482;9.206;2023-07-31T20:37:23;20.70;84.10
9820;DHT22;4949;48.482;9.206;2023-07-31T20:42:27;20.60;86.70
9820;DHT22;4949;48.482;9.206;2023-07-31T20:47:30;20.70;85.70
9820;DHT22;4949;48.482;9.206;2023-07-31T20:52:38;20.50;87.60
9820;DHT22;4949;48.482;9.206;2023-07-31T20:57:38;20.30;88.70
9820;DHT22;4949;48.482;9.206;2023-07-31T21:02:39;20.30;87.90
9820;DHT22;4949;48.482;9.206;2023-07-31T21:07:42;20.20;86.00
9820;DHT22;4949;48.482;9.206;2023-07-31T21:12:43;20.20;87.70
9820;DHT22;4949;48.482;9.206;2023-07-31T21:17:44;20.20;89.40
9820;DHT22;4949;48.482;9.206;2023-07-31T21:22:46;20.10;89.50
9820;DHT22;4949;48.482;9.206;2023-07-31T21:27:50;20.00;88.70
9820;DHT22;4949;48.482;9.206;2023-07-31T21:32:50;19.90;88.00
9820;DHT22;4949;48.482;9.206;2023-07-31T21:37:53;19.80;88.70
9820;DHT22;4949;48.482;9.206;2023-07-31T21:42:56;19.80;89.20
9820;DHT22;4949;48.482;9.206;2023-07-31T21:47:59;19.80;89.80
9820;DHT22;4949;48.482;9.206;2023-07-31T21:53:03;19.80;89.50
9820;DHT22;4949;48.482;9.206;2023-07-31T21:58:06;19.80;86.90
9820;DHT22;4949;48.482;9.206;2023-07-31T22:03:07;19.80;85.30
9820;DHT22;4949;48.482;9.206;2023-07-31T22:08:07;19.90;83.30
9820;DHT22;4949;48.482;9.206;2023-07-31T22:13:08;19.80;85.20
9820;DHT22;4949;48.482;9.206;2023-07-31T22:18:09;19.80;86.20
9820;DHT22;4949;48.482;9.206;2023-07-31T22:23:09;19.80;84.90
9820;DHT22;4949;48.482;9.206;2023-07-31T22:28:12;19.80;83.80
9820;DHT22;4949;48.482;9.206;2023-07-31T22:33:13;19.90;80.10
9820;DHT22;4949;48.482;9.206;2023-07-31T22:38:14;20.00;78.00
9820;DHT22;4949;48.482;9.206;2023-07-31T22:43:19;19.90;76.60
9820;DHT22;4949;48.482;9.206;2023-07-31T22:48:20;19.80;78.20
9820;DHT22;4949;48.482;9.206;2023-07-31T22:53:20;19.70;78.40
9820;DHT22;4949;48.482;9.206;2023-07-31T22:58:23;19.70;78.50
9820;DHT22;4949;48.482;9.206;2023-07-31T23:03:26;19.60;78.90
9820;DHT22;4949;48.482;9.206;2023-07-31T23:08:31;19.60;78.50
9820;DHT22;4949;48.482;9.206;2023-07-31T23:13:35;19.60;78.80
9820;DHT22;4949;48.482;9.206;2023-07-31T23:18:36;19.60;78.50
9820;DHT22;4949;48.482;9.206;2023-07-31T23:23:41;19.60;77.20
9820;DHT22;4949;48.482;9.206;2023-07-31T23:28:41;19.70;75.60
9820;DHT22;4949;48.482;9.206;2023-07-31T23:33:42;19.70;75.50
9820;DHT22;4949;48.482;9.206;2023-07-31T23:38:43;19.80;74.90
9820;DHT22;4949;48.482;9.206;2023-07-31T23:43:44;19.80;74.90
9820;DHT22;4949;48.482;9.206;2023-07-31T23:48:48;19.80;73.20
9820;DHT22;4949;48.482;9.206;2023-07-31T23:53:49;19.90;71.40
9820;DHT22;4949;48.482;9.206;2023-07-31T23:58:50;19.90;71.90
